Telford, United Kingdom
Current Conditions -  °F | °C
As of 7:50 PM on Friday 24 Oct 2014 (Local Time) from EGOS Reporting Station
Broken Clouds Broken Clouds  
Wind Chill: 50°   Ceiling: 5000
Heat Index: 50°   Visibility: 6mi
Dew Point: 46°   Wind: 2mph
Humidity: 87%   Direction: 290°WNW
Pressure: 29.91"   Gusts: NA
Location:  52.68°N, 2.45°W
Report Text: EGOS 241850Z AUTO 29002KT 9999 FEW026/// BKN050/// 10/08 Q1013 RERA
Loading
Personal Weather Stations






























Interactive Weather Map New forecast layout! Learn more

10-Day Weather Forecast

Advertisements
Track Severe Weather on mobile